<?xml version='1.0' encoding='UTF-8'?>
<gpx version="1.1" creator="https://www.komoot.de" xmlns="http://www.topografix.com/GPX/1/1" xmlns:xsi="http://www.w3.org/2001/XMLSchema-instance" xsi:schemaLocation="http://www.topografix.com/GPX/1/1 http://www.topografix.com/GPX/1/1/gpx.xsd">
  <metadata>
    <name>Adlis leise Tennmoosstr</name>
    <author>
      <link href="https://www.komoot.de">
        <text>komoot</text>
        <type>text/html</type>
      </link>
    </author>
  </metadata>
  <trk>
    <name>Adlis leise Tennmoosstr</name>
    <trkseg>
      <trkpt lat="47.379294" lon="8.597781">
        <ele>601.168709</ele>
        <time>2022-05-03T10:45:25.000Z</time>
      </trkpt>
      <trkpt lat="47.379196" lon="8.597812">
        <ele>601.168709</ele>
        <time>2022-05-03T10:45:34.000Z</time>
      </trkpt>
      <trkpt lat="47.379101" lon="8.597784">
        <ele>601.168709</ele>
        <time>2022-05-03T10:45:43.999Z</time>
      </trkpt>
      <trkpt lat="47.378994" lon="8.597796">
        <ele>601.168709</ele>
        <time>2022-05-03T10:45:50.999Z</time>
      </trkpt>
      <trkpt lat="47.378910" lon="8.597866">
        <ele>601.168709</ele>
        <time>2022-05-03T10:45:56.999Z</time>
      </trkpt>
      <trkpt lat="47.378850" lon="8.597995">
        <ele>601.168709</ele>
        <time>2022-05-03T10:46:01.999Z</time>
      </trkpt>
      <trkpt lat="47.378782" lon="8.598083">
        <ele>601.168709</ele>
        <time>2022-05-03T10:46:07.999Z</time>
      </trkpt>
      <trkpt lat="47.378704" lon="8.598156">
        <ele>601.168709</ele>
        <time>2022-05-03T10:46:17.999Z</time>
      </trkpt>
      <trkpt lat="47.378605" lon="8.598206">
        <ele>601.168709</ele>
        <time>2022-05-03T10:46:24.999Z</time>
      </trkpt>
      <trkpt lat="47.378508" lon="8.598246">
        <ele>601.168709</ele>
        <time>2022-05-03T10:46:31.999Z</time>
      </trkpt>
      <trkpt lat="47.378424" lon="8.598305">
        <ele>602.115699</ele>
        <time>2022-05-03T10:46:39.999Z</time>
      </trkpt>
      <trkpt lat="47.378329" lon="8.598367">
        <ele>603.225530</ele>
        <time>2022-05-03T10:46:46.999Z</time>
      </trkpt>
      <trkpt lat="47.378243" lon="8.598419">
        <ele>604.218526</ele>
        <time>2022-05-03T10:46:54.999Z</time>
      </trkpt>
      <trkpt lat="47.378156" lon="8.598488">
        <ele>605.273747</ele>
        <time>2022-05-03T10:47:02.999Z</time>
      </trkpt>
      <trkpt lat="47.378065" lon="8.598538">
        <ele>606.311249</ele>
        <time>2022-05-03T10:47:10.998Z</time>
      </trkpt>
      <trkpt lat="47.377994" lon="8.598649">
        <ele>607.416084</ele>
        <time>2022-05-03T10:47:20.000Z</time>
      </trkpt>
      <trkpt lat="47.377902" lon="8.598708">
        <ele>608.487843</ele>
        <time>2022-05-03T10:47:28.000Z</time>
      </trkpt>
      <trkpt lat="47.377821" lon="8.598810">
        <ele>609.625317</ele>
        <time>2022-05-03T10:47:38.000Z</time>
      </trkpt>
      <trkpt lat="47.377726" lon="8.598779">
        <ele>610.664925</ele>
        <time>2022-05-03T10:47:45.999Z</time>
      </trkpt>
      <trkpt lat="47.377705" lon="8.598626">
        <ele>611.794516</ele>
        <time>2022-05-03T10:48:07.999Z</time>
      </trkpt>
      <trkpt lat="47.377711" lon="8.598484">
        <ele>612.823998</ele>
        <time>2022-05-03T10:48:17.999Z</time>
      </trkpt>
      <trkpt lat="47.377716" lon="8.598343">
        <ele>613.845644</ele>
        <time>2022-05-03T10:48:24.999Z</time>
      </trkpt>
      <trkpt lat="47.377735" lon="8.598199">
        <ele>614.907195</ele>
        <time>2022-05-03T10:48:32.999Z</time>
      </trkpt>
      <trkpt lat="47.377735" lon="8.598049">
        <ele>615.992565</ele>
        <time>2022-05-03T10:48:46.999Z</time>
      </trkpt>
      <trkpt lat="47.377747" lon="8.597911">
        <ele>616.999305</ele>
        <time>2022-05-03T10:48:55.999Z</time>
      </trkpt>
      <trkpt lat="47.377746" lon="8.597760">
        <ele>618.091963</ele>
        <time>2022-05-03T10:49:04.998Z</time>
      </trkpt>
      <trkpt lat="47.377695" lon="8.597634">
        <ele>619.154129</ele>
        <time>2022-05-03T10:49:13.998Z</time>
      </trkpt>
      <trkpt lat="47.377603" lon="8.597569">
        <ele>620.243910</ele>
        <time>2022-05-03T10:49:19.998Z</time>
      </trkpt>
      <trkpt lat="47.377514" lon="8.597529">
        <ele>620.744193</ele>
        <time>2022-05-03T10:49:28.000Z</time>
      </trkpt>
      <trkpt lat="47.377439" lon="8.597614">
        <ele>621.167482</ele>
        <time>2022-05-03T10:49:35.000Z</time>
      </trkpt>
      <trkpt lat="47.377353" lon="8.597679">
        <ele>621.600031</ele>
        <time>2022-05-03T10:49:41.000Z</time>
      </trkpt>
      <trkpt lat="47.377255" lon="8.597731">
        <ele>622.066270</ele>
        <time>2022-05-03T10:49:50.000Z</time>
      </trkpt>
      <trkpt lat="47.377172" lon="8.597784">
        <ele>622.471139</ele>
        <time>2022-05-03T10:49:55.999Z</time>
      </trkpt>
      <trkpt lat="47.377082" lon="8.597855">
        <ele>622.927989</ele>
        <time>2022-05-03T10:50:04.999Z</time>
      </trkpt>
      <trkpt lat="47.377017" lon="8.597948">
        <ele>623.333205</ele>
        <time>2022-05-03T10:50:11.999Z</time>
      </trkpt>
      <trkpt lat="47.376923" lon="8.598005">
        <ele>623.788170</ele>
        <time>2022-05-03T10:50:18.999Z</time>
      </trkpt>
      <trkpt lat="47.376835" lon="8.598091">
        <ele>624.260637</ele>
        <time>2022-05-03T10:50:27.999Z</time>
      </trkpt>
      <trkpt lat="47.376738" lon="8.598144">
        <ele>624.723709</ele>
        <time>2022-05-03T10:50:33.999Z</time>
      </trkpt>
      <trkpt lat="47.376659" lon="8.598222">
        <ele>625.149191</ele>
        <time>2022-05-03T10:50:40.999Z</time>
      </trkpt>
      <trkpt lat="47.376617" lon="8.598351">
        <ele>625.583165</ele>
        <time>2022-05-03T10:50:47.999Z</time>
      </trkpt>
      <trkpt lat="47.376555" lon="8.598448">
        <ele>625.987578</ele>
        <time>2022-05-03T10:50:52.999Z</time>
      </trkpt>
      <trkpt lat="47.376529" lon="8.598589">
        <ele>626.430645</ele>
        <time>2022-05-03T10:51:08.998Z</time>
      </trkpt>
      <trkpt lat="47.376442" lon="8.598552">
        <ele>626.836001</ele>
        <time>2022-05-03T10:51:50.000Z</time>
      </trkpt>
      <trkpt lat="47.376508" lon="8.598442">
        <ele>627.281592</ele>
        <time>2022-05-03T10:52:05.999Z</time>
      </trkpt>
      <trkpt lat="47.376506" lon="8.598585">
        <ele>627.715249</ele>
        <time>2022-05-03T10:52:13.999Z</time>
      </trkpt>
      <trkpt lat="47.376451" lon="8.598715">
        <ele>628.180000</ele>
        <time>2022-05-03T10:52:23.999Z</time>
      </trkpt>
      <trkpt lat="47.376398" lon="8.598841">
        <ele>628.530179</ele>
        <time>2022-05-03T10:52:30.999Z</time>
      </trkpt>
      <trkpt lat="47.376334" lon="8.598970">
        <ele>628.759125</ele>
        <time>2022-05-03T10:52:38.999Z</time>
      </trkpt>
      <trkpt lat="47.376251" lon="8.599040">
        <ele>628.961201</ele>
        <time>2022-05-03T10:52:46.999Z</time>
      </trkpt>
      <trkpt lat="47.376161" lon="8.599088">
        <ele>629.163505</ele>
        <time>2022-05-03T10:52:52.999Z</time>
      </trkpt>
      <trkpt lat="47.376064" lon="8.599118">
        <ele>629.373027</ele>
        <time>2022-05-03T10:52:59.999Z</time>
      </trkpt>
      <trkpt lat="47.375963" lon="8.599054">
        <ele>629.605386</ele>
        <time>2022-05-03T10:53:08.999Z</time>
      </trkpt>
      <trkpt lat="47.375871" lon="8.599051">
        <ele>629.799935</ele>
        <time>2022-05-03T10:53:17.998Z</time>
      </trkpt>
      <trkpt lat="47.375777" lon="8.599026">
        <ele>630.001863</ele>
        <time>2022-05-03T10:53:24.998Z</time>
      </trkpt>
      <trkpt lat="47.375699" lon="8.598944">
        <ele>630.204288</ele>
        <time>2022-05-03T10:53:33.000Z</time>
      </trkpt>
      <trkpt lat="47.375606" lon="8.598935">
        <ele>630.401326</ele>
        <time>2022-05-03T10:53:38.000Z</time>
      </trkpt>
      <trkpt lat="47.375506" lon="8.598980">
        <ele>630.622340</ele>
        <time>2022-05-03T10:53:43.000Z</time>
      </trkpt>
      <trkpt lat="47.375412" lon="8.599025">
        <ele>630.831253</ele>
        <time>2022-05-03T10:53:48.000Z</time>
      </trkpt>
      <trkpt lat="47.375317" lon="8.599069">
        <ele>631.041745</ele>
        <time>2022-05-03T10:53:56.999Z</time>
      </trkpt>
      <trkpt lat="47.375245" lon="8.599155">
        <ele>631.237527</ele>
        <time>2022-05-03T10:54:02.999Z</time>
      </trkpt>
      <trkpt lat="47.375210" lon="8.599291">
        <ele>631.445823</ele>
        <time>2022-05-03T10:54:07.999Z</time>
      </trkpt>
      <trkpt lat="47.375174" lon="8.599420">
        <ele>631.645580</ele>
        <time>2022-05-03T10:54:13.999Z</time>
      </trkpt>
      <trkpt lat="47.375115" lon="8.599531">
        <ele>631.847604</ele>
        <time>2022-05-03T10:54:18.999Z</time>
      </trkpt>
      <trkpt lat="47.375031" lon="8.599601">
        <ele>632.051520</ele>
        <time>2022-05-03T10:54:25.999Z</time>
      </trkpt>
      <trkpt lat="47.374962" lon="8.599697">
        <ele>632.220833</ele>
        <time>2022-05-03T10:54:31.999Z</time>
      </trkpt>
      <trkpt lat="47.374901" lon="8.599799">
        <ele>631.677448</ele>
        <time>2022-05-03T10:54:40.999Z</time>
      </trkpt>
      <trkpt lat="47.374892" lon="8.599941">
        <ele>631.107947</ele>
        <time>2022-05-03T10:54:52.999Z</time>
      </trkpt>
      <trkpt lat="47.374804" lon="8.599910">
        <ele>630.574491</ele>
        <time>2022-05-03T10:55:43.000Z</time>
      </trkpt>
      <trkpt lat="47.374716" lon="8.600000">
        <ele>629.943296</ele>
        <time>2022-05-03T10:55:53.000Z</time>
      </trkpt>
      <trkpt lat="47.374638" lon="8.600081">
        <ele>629.381023</ele>
        <time>2022-05-03T10:56:00.999Z</time>
      </trkpt>
      <trkpt lat="47.374570" lon="8.600177">
        <ele>628.826295</ele>
        <time>2022-05-03T10:56:07.999Z</time>
      </trkpt>
      <trkpt lat="47.374492" lon="8.600249">
        <ele>628.283898</ele>
        <time>2022-05-03T10:56:15.999Z</time>
      </trkpt>
      <trkpt lat="47.374443" lon="8.600379">
        <ele>627.689797</ele>
        <time>2022-05-03T10:56:22.999Z</time>
      </trkpt>
      <trkpt lat="47.374383" lon="8.600487">
        <ele>627.131985</ele>
        <time>2022-05-03T10:56:29.999Z</time>
      </trkpt>
      <trkpt lat="47.374344" lon="8.600610">
        <ele>626.589656</ele>
        <time>2022-05-03T10:56:35.999Z</time>
      </trkpt>
      <trkpt lat="47.374315" lon="8.600738">
        <ele>626.050685</ele>
        <time>2022-05-03T10:56:44.999Z</time>
      </trkpt>
      <trkpt lat="47.374261" lon="8.600846">
        <ele>625.514613</ele>
        <time>2022-05-03T10:56:52.999Z</time>
      </trkpt>
      <trkpt lat="47.374180" lon="8.600929">
        <ele>624.933263</ele>
        <time>2022-05-03T10:56:59.999Z</time>
      </trkpt>
      <trkpt lat="47.374089" lon="8.601012">
        <ele>624.302572</ele>
        <time>2022-05-03T10:57:06.999Z</time>
      </trkpt>
      <trkpt lat="47.374034" lon="8.601131">
        <ele>623.727263</ele>
        <time>2022-05-03T10:57:12.999Z</time>
      </trkpt>
      <trkpt lat="47.373979" lon="8.601237">
        <ele>623.194027</ele>
        <time>2022-05-03T10:57:17.998Z</time>
      </trkpt>
      <trkpt lat="47.373931" lon="8.601359">
        <ele>622.630607</ele>
        <time>2022-05-03T10:57:24.998Z</time>
      </trkpt>
      <trkpt lat="47.373884" lon="8.601476">
        <ele>622.087391</ele>
        <time>2022-05-03T10:57:30.998Z</time>
      </trkpt>
      <trkpt lat="47.373827" lon="8.601622">
        <ele>621.637983</ele>
        <time>2022-05-03T10:57:36.998Z</time>
      </trkpt>
      <trkpt lat="47.373781" lon="8.601743">
        <ele>621.637983</ele>
        <time>2022-05-03T10:57:44.999Z</time>
      </trkpt>
      <trkpt lat="47.373737" lon="8.601859">
        <ele>621.637983</ele>
        <time>2022-05-03T10:57:52.000Z</time>
      </trkpt>
      <trkpt lat="47.373825" lon="8.601829">
        <ele>621.637983</ele>
        <time>2022-05-03T10:57:58.999Z</time>
      </trkpt>
      <trkpt lat="47.373919" lon="8.601833">
        <ele>621.637983</ele>
        <time>2022-05-03T10:58:03.999Z</time>
      </trkpt>
      <trkpt lat="47.374016" lon="8.601805">
        <ele>621.637983</ele>
        <time>2022-05-03T10:58:10.999Z</time>
      </trkpt>
      <trkpt lat="47.374113" lon="8.601774">
        <ele>621.637983</ele>
        <time>2022-05-03T10:58:17.999Z</time>
      </trkpt>
      <trkpt lat="47.374209" lon="8.601742">
        <ele>621.637983</ele>
        <time>2022-05-03T10:58:24.999Z</time>
      </trkpt>
      <trkpt lat="47.374303" lon="8.601728">
        <ele>621.637983</ele>
        <time>2022-05-03T10:58:31.999Z</time>
      </trkpt>
      <trkpt lat="47.374403" lon="8.601690">
        <ele>621.637983</ele>
        <time>2022-05-03T10:58:38.999Z</time>
      </trkpt>
      <trkpt lat="47.374497" lon="8.601613">
        <ele>621.637983</ele>
        <time>2022-05-03T10:58:46.999Z</time>
      </trkpt>
      <trkpt lat="47.374581" lon="8.601547">
        <ele>621.637983</ele>
        <time>2022-05-03T10:58:52.999Z</time>
      </trkpt>
      <trkpt lat="47.374676" lon="8.601532">
        <ele>621.637983</ele>
        <time>2022-05-03T10:58:57.999Z</time>
      </trkpt>
      <trkpt lat="47.374778" lon="8.601542">
        <ele>621.637983</ele>
        <time>2022-05-03T10:59:03.999Z</time>
      </trkpt>
      <trkpt lat="47.374870" lon="8.601508">
        <ele>621.637983</ele>
        <time>2022-05-03T10:59:10.999Z</time>
      </trkpt>
      <trkpt lat="47.374964" lon="8.601483">
        <ele>621.637983</ele>
        <time>2022-05-03T10:59:18.998Z</time>
      </trkpt>
      <trkpt lat="47.375057" lon="8.601480">
        <ele>621.637983</ele>
        <time>2022-05-03T10:59:25.998Z</time>
      </trkpt>
    </trkseg>
  </trk>
</gpx>